Marquand, Missouri
Current Conditions -  °F | °C
As of 12:15 PM on Friday 28 Nov 2014 (Local Time) from KFAM Reporting Station
Clear Clear  
Wind Chill: 37°   Ceiling: Unl
Heat Index: 45°   Visibility: 10mi
Dew Point: 30°   Wind: 18mph
Humidity: 57%   Direction: 150°SSE
Pressure: 30.1"   Gusts: 29mph
Location:  37.43°N, 90.17°W
Report Text: KFAM 281815Z AUTO 15016G25KT 10SM CLR 07/M01 A3010 RMK AO1
Loading
Personal Weather Stations






























Interactive Weather Map New forecast layout! Learn more

10-Day Weather Forecast

Advertisements
Track Severe Weather on mobile